createdAt,value
2023-12-09T00:01:48.778Z,100924.50
2023-12-09T00:04:17.273Z,100922.22
2023-12-09T00:06:50.324Z,100928.44
2023-12-09T00:09:19.528Z,100922.44
2023-12-09T00:11:48.091Z,100914.31
2023-12-09T00:14:16.560Z,100907.84
2023-12-09T00:16:45.221Z,100912.84
2023-12-09T00:19:14.344Z,100915.97
2023-12-09T00:21:43.052Z,100917.22
2023-12-09T00:24:11.605Z,100913.94
2023-12-09T00:26:40.146Z,100919.31
2023-12-09T00:29:08.591Z,100914.94
2023-12-09T00:31:36.999Z,100925.72
2023-12-09T00:34:05.613Z,100926.97
2023-12-09T00:36:34.423Z,100927.00
2023-12-09T00:39:02.988Z,100936.41
2023-12-09T00:41:31.462Z,100916.41
2023-12-09T00:43:59.863Z,100901.34
2023-12-09T00:46:28.265Z,100916.97
2023-12-09T00:48:56.778Z,100918.63
2023-12-09T00:51:25.412Z,100913.56
2023-12-09T00:53:53.933Z,100913.63
2023-12-09T00:56:33.589Z,100916.47
2023-12-09T00:59:04.781Z,100905.75
2023-12-09T01:01:34.818Z,100900.91
2023-12-09T01:04:04.979Z,100915.47
2023-12-09T01:06:33.815Z,100901.88
2023-12-09T01:09:02.501Z,100898.44
2023-12-09T01:11:31.005Z,100909.91
2023-12-09T01:13:59.479Z,100899.88
2023-12-09T01:16:27.984Z,100909.25
2023-12-09T01:18:56.560Z,100888.44
2023-12-09T01:21:25.144Z,100897.75
2023-12-09T01:23:53.748Z,100901.53
2023-12-09T01:26:22.273Z,100894.88
2023-12-09T01:28:50.815Z,100901.13
2023-12-09T01:31:19.253Z,100884.63
2023-12-09T01:33:47.773Z,100896.75
2023-12-09T01:36:16.303Z,100905.31
2023-12-09T01:38:44.724Z,100886.75
2023-12-09T01:41:13.143Z,100896.97
2023-12-09T01:43:41.708Z,100902.41
2023-12-09T01:46:13.723Z,100888.63
2023-12-09T01:48:42.714Z,100884.88
2023-12-09T01:51:12.187Z,100870.28
2023-12-09T01:53:40.825Z,100866.72
2023-12-09T01:56:12.559Z,100862.47
2023-12-09T01:58:41.194Z,100857.34
2023-12-09T02:01:10.645Z,100859.38
2023-12-09T02:03:39.387Z,100861.22
2023-12-09T02:06:07.955Z,100861.09
2023-12-09T02:08:37.228Z,100877.47
2023-12-09T02:11:08.484Z,100861.50
2023-12-09T02:14:17.548Z,100872.06
2023-12-09T02:16:57.603Z,100858.50
2023-12-09T02:19:26.991Z,100867.31
2023-12-09T02:22:04.854Z,100856.09
2023-12-09T02:24:35.149Z,100854.81
2023-12-09T02:27:16.730Z,100853.38
2023-12-09T02:30:04.964Z,100855.88
2023-12-09T02:32:36.337Z,100843.56
2023-12-09T02:35:07.048Z,100847.34
2023-12-09T02:37:36.543Z,100854.78
2023-12-09T02:40:10.987Z,100847.47
2023-12-09T02:42:40.126Z,100843.66
2023-12-09T02:45:09.479Z,100843.91
2023-12-09T02:47:38.052Z,100841.59
2023-12-09T02:50:06.975Z,100835.75
2023-12-09T02:52:35.476Z,100828.50
2023-12-09T02:55:04.198Z,100829.41
2023-12-09T02:57:32.917Z,100829.09
2023-12-09T03:00:01.780Z,100818.09
2023-12-09T03:02:30.324Z,100830.97
2023-12-09T03:05:01.816Z,100816.81
2023-12-09T03:07:30.287Z,100830.97
2023-12-09T03:09:58.800Z,100814.69
2023-12-09T03:12:27.643Z,100834.97
2023-12-09T03:14:56.301Z,100806.88
2023-12-09T03:17:25.415Z,100823.56
2023-12-09T03:19:54.031Z,100813.13
2023-12-09T03:22:22.465Z,100817.94
2023-12-09T03:24:50.895Z,100806.69
2023-12-09T03:27:19.422Z,100805.84
2023-12-09T03:29:48.110Z,100803.94
2023-12-09T03:32:16.551Z,100818.31
2023-12-09T03:34:45.746Z,100801.66
2023-12-09T03:37:14.239Z,100803.50
2023-12-09T03:39:42.663Z,100808.13
2023-12-09T03:42:11.242Z,100804.78
2023-12-09T03:44:39.664Z,100800.19
2023-12-09T03:47:14.923Z,100797.69
2023-12-09T03:49:50.659Z,100794.34
2023-12-09T03:52:19.399Z,100778.94
2023-12-09T03:54:47.973Z,100783.09
2023-12-09T03:57:16.448Z,100774.34
2023-12-09T03:59:44.991Z,100763.50
2023-12-09T04:02:13.609Z,100763.94
2023-12-09T04:04:42.100Z,100758.88
2023-12-09T04:07:10.672Z,100763.38
2023-12-09T04:09:39.439Z,100769.56
2023-12-09T04:12:07.983Z,100766.84
2023-12-09T04:14:36.525Z,100770.13
2023-12-09T04:17:05.025Z,100772.81
2023-12-09T04:19:34.070Z,100770.78
2023-12-09T04:22:02.769Z,100770.09
2023-12-09T04:24:31.262Z,100762.91
2023-12-09T04:26:59.959Z,100757.25
2023-12-09T04:29:28.468Z,100755.19
2023-12-09T04:31:58.204Z,100736.22
2023-12-09T04:34:27.918Z,100737.44
2023-12-09T04:36:57.565Z,100742.66
2023-12-09T04:39:26.156Z,100732.66
2023-12-09T04:41:54.729Z,100748.91
2023-12-09T04:44:24.366Z,100726.38
2023-12-09T04:46:52.918Z,100728.06
2023-12-09T04:49:22.892Z,100726.41
2023-12-09T04:51:51.461Z,100717.63
2023-12-09T04:54:19.938Z,100715.97
2023-12-09T04:56:48.397Z,100718.94
2023-12-09T04:59:17.254Z,100716.41
2023-12-09T05:01:46.400Z,100721.41
2023-12-09T05:04:15.633Z,100707.22
2023-12-09T05:06:44.820Z,100704.31
2023-12-09T05:09:14.452Z,100708.09
2023-12-09T05:11:42.960Z,100704.13
2023-12-09T05:14:11.506Z,100694.13
2023-12-09T05:16:39.932Z,100698.50
2023-12-09T05:19:08.553Z,100700.78
2023-12-09T05:21:37.154Z,100705.56
2023-12-09T05:24:06.250Z,100710.53
2023-12-09T05:26:34.868Z,100694.69
2023-12-09T05:29:04.605Z,100701.38
2023-12-09T05:31:33.164Z,100697.03
2023-12-09T05:34:02.636Z,100687.59
2023-12-09T05:36:31.461Z,100685.09
2023-12-09T05:39:00.254Z,100693.88
2023-12-09T05:41:28.737Z,100695.31
2023-12-09T05:43:57.387Z,100691.59
2023-12-09T05:46:25.783Z,100684.28
2023-12-09T05:48:54.344Z,100685.34
2023-12-09T05:51:22.980Z,100685.16
2023-12-09T05:53:51.503Z,100669.72
2023-12-09T05:56:20.303Z,100669.72
2023-12-09T05:58:48.760Z,100678.06
2023-12-09T06:01:18.018Z,100668.09
2023-12-09T06:03:46.617Z,100668.66
2023-12-09T06:06:15.239Z,100675.13
2023-12-09T06:08:43.829Z,100672.84
2023-12-09T06:11:12.255Z,100672.88
2023-12-09T06:13:40.853Z,100667.03
2023-12-09T06:16:09.535Z,100668.47
2023-12-09T06:18:38.083Z,100658.44
2023-12-09T06:21:06.660Z,100642.16
2023-12-09T06:23:37.829Z,100633.91
2023-12-09T06:26:06.393Z,100629.97
2023-12-09T06:28:36.233Z,100628.69
2023-12-09T06:31:04.918Z,100639.28
2023-12-09T06:33:34.827Z,100633.91
2023-12-09T06:36:04.080Z,100627.59
2023-12-09T06:38:35.426Z,100620.78
2023-12-09T06:41:04.061Z,100617.66
2023-12-09T06:43:35.534Z,100617.41
2023-12-09T06:46:04.190Z,100617.16
2023-12-09T06:48:32.801Z,100614.47
2023-12-09T06:51:01.496Z,100593.13
2023-12-09T06:53:30.088Z,100598.84
2023-12-09T06:55:58.496Z,100589.34
2023-12-09T06:58:26.946Z,100575.81
2023-12-09T07:00:56.183Z,100563.94
2023-12-09T07:03:24.759Z,100552.03
2023-12-09T07:05:53.263Z,100543.75
2023-12-09T07:08:21.871Z,100543.25
2023-12-09T07:10:50.309Z,100537.69
2023-12-09T07:13:18.996Z,100535.22
2023-12-09T07:15:47.406Z,100531.25
2023-12-09T07:18:19.902Z,100511.69
2023-12-09T07:20:48.729Z,100511.34
2023-12-09T07:23:17.449Z,100506.34
2023-12-09T07:25:46.055Z,100502.63
2023-12-09T07:28:14.513Z,100498.91
2023-12-09T07:30:43.026Z,100504.97
2023-12-09T07:33:11.528Z,100510.28
2023-12-09T07:35:43.700Z,100510.03
2023-12-09T07:38:12.635Z,100515.88
2023-12-09T07:40:41.152Z,100499.91
2023-12-09T07:43:09.569Z,100482.03
2023-12-09T07:45:38.203Z,100478.63
2023-12-09T07:48:06.921Z,100465.41
2023-12-09T07:50:36.392Z,100477.81
2023-12-09T07:53:05.384Z,100493.34
2023-12-09T07:55:33.849Z,100477.16
2023-12-09T07:58:02.380Z,100479.09
2023-12-09T08:00:30.980Z,100482.69
2023-12-09T08:03:06.250Z,100474.94
2023-12-09T08:05:36.212Z,100460.56
2023-12-09T08:08:05.125Z,100441.34
2023-12-09T08:10:33.656Z,100439.66
2023-12-09T08:13:04.200Z,100443.41
2023-12-09T08:15:32.690Z,100445.25
2023-12-09T08:18:01.387Z,100449.13
2023-12-09T08:20:30.363Z,100441.22
2023-12-09T08:22:58.848Z,100446.28
2023-12-09T08:25:27.368Z,100443.66
2023-12-09T08:27:55.801Z,100452.84
2023-12-09T08:30:24.476Z,100438.84
2023-12-09T08:32:53.013Z,100430.88
2023-12-09T08:35:22.339Z,100433.44
2023-12-09T08:37:51.136Z,100438.19
2023-12-09T08:40:19.702Z,100443.03
2023-12-09T08:42:48.264Z,100436.22
2023-12-09T08:45:18.430Z,100434.28
2023-12-09T08:47:48.385Z,100422.97
2023-12-09T08:52:48.247Z,100416.00
2023-12-09T08:55:18.348Z,100413.69
2023-12-09T08:57:47.036Z,100411.16
2023-12-09T09:00:20.287Z,100403.47
2023-12-09T09:02:49.089Z,100407.19
2023-12-09T09:05:17.728Z,100400.50
2023-12-09T09:07:46.645Z,100392.13
2023-12-09T09:10:15.642Z,100392.19
2023-12-09T09:12:45.289Z,100377.25
2023-12-09T09:15:14.350Z,100369.16
2023-12-09T09:17:42.906Z,100355.81
2023-12-09T09:20:11.919Z,100332.75
2023-12-09T09:22:44.615Z,100327.53
2023-12-09T09:25:16.931Z,100323.53
2023-12-09T09:27:45.809Z,100313.03
2023-12-09T09:30:14.831Z,100303.88
2023-12-09T09:32:43.572Z,100299.50
2023-12-09T09:35:12.382Z,100290.38
2023-12-09T09:37:40.938Z,100286.38
2023-12-09T09:40:12.782Z,100296.78
2023-12-09T09:42:58.130Z,100300.75
2023-12-09T09:45:31.883Z,100295.66
2023-12-09T09:48:08.311Z,100300.25
2023-12-09T09:50:43.695Z,100294.44
2023-12-09T09:53:22.584Z,100286.34
2023-12-09T09:55:52.536Z,100274.13
2023-12-09T09:58:21.682Z,100266.63
2023-12-09T10:00:51.762Z,100245.56
2023-12-09T10:03:20.344Z,100248.88
2023-12-09T10:05:49.105Z,100247.28
2023-12-09T10:08:17.599Z,100227.75
2023-12-09T10:10:46.224Z,100220.03
2023-12-09T10:13:14.791Z,100220.59
2023-12-09T10:15:43.275Z,100197.66
2023-12-09T10:18:15.305Z,100187.38
2023-12-09T10:20:45.842Z,100185.09
2023-12-09T10:23:15.262Z,100175.72
2023-12-09T10:25:43.746Z,100161.72
2023-12-09T10:28:13.626Z,100158.06
2023-12-09T10:30:43.091Z,100134.78
2023-12-09T10:33:12.598Z,100143.00
2023-12-09T10:35:41.253Z,100124.75
2023-12-09T10:38:10.222Z,100118.19
2023-12-09T10:40:39.179Z,100127.78
2023-12-09T10:43:07.682Z,100126.88
2023-12-09T10:45:36.312Z,100107.66
2023-12-09T10:48:04.989Z,100098.19
2023-12-09T10:50:34.599Z,100087.28
2023-12-09T10:53:03.204Z,100081.94
2023-12-09T10:55:32.026Z,100060.22
2023-12-09T10:58:01.482Z,100048.53
2023-12-09T11:00:31.528Z,100045.97
2023-12-09T11:03:01.567Z,100030.25
2023-12-09T11:05:33.616Z,100020.09
2023-12-09T11:08:02.427Z,100005.28
2023-12-09T11:10:31.087Z,100016.19
2023-12-09T11:12:59.619Z,100007.28
2023-12-09T11:15:33.462Z,99993.72
2023-12-09T11:18:12.538Z,99981.53
2023-12-09T11:20:42.616Z,99978.63
2023-12-09T11:23:12.784Z,99971.38
2023-12-09T11:25:43.416Z,99962.72
2023-12-09T11:28:14.850Z,99950.47
2023-12-09T11:30:45.792Z,99928.72
2023-12-09T11:33:14.852Z,99929.84
2023-12-09T11:35:47.019Z,99922.19
2023-12-09T11:38:16.143Z,99910.41
2023-12-09T11:40:45.628Z,99898.44
2023-12-09T11:43:15.512Z,99889.06
2023-12-09T11:45:45.370Z,99872.41
2023-12-09T11:48:14.468Z,99856.56
2023-12-09T11:50:43.338Z,99839.47
2023-12-09T11:53:11.943Z,99833.59
2023-12-09T11:55:41.622Z,99838.53
2023-12-09T11:58:11.077Z,99817.69
2023-12-09T12:00:39.995Z,99810.16
2023-12-09T12:03:09.747Z,99790.03
2023-12-09T12:05:38.984Z,99775.97
2023-12-09T12:08:16.541Z,99750.31
2023-12-09T12:10:45.202Z,99741.75
2023-12-09T12:13:13.840Z,99727.88
2023-12-09T12:15:42.407Z,99729.78
2023-12-09T12:18:11.090Z,99729.56
2023-12-09T12:20:40.866Z,99716.00
2023-12-09T12:23:14.132Z,99698.25
2023-12-09T12:25:54.082Z,99676.97
2023-12-09T12:28:23.488Z,99684.09
2023-12-09T12:31:01.241Z,99659.84
2023-12-09T12:33:31.938Z,99648.81
2023-12-09T12:36:02.527Z,99626.78
2023-12-09T12:38:31.285Z,99604.09
2023-12-09T12:40:59.752Z,99603.34
2023-12-09T12:43:32.182Z,99576.81
2023-12-09T12:46:01.372Z,99560.03
2023-12-09T12:48:30.199Z,99545.88
2023-12-09T12:50:59.052Z,99544.25
2023-12-09T12:53:28.932Z,99542.34
2023-12-09T12:55:57.656Z,99533.34
2023-12-09T12:58:26.122Z,99528.22
2023-12-09T13:00:55.958Z,99532.03
2023-12-09T13:03:26.426Z,99516.25
2023-12-09T13:05:54.936Z,99497.94
2023-12-09T13:08:23.407Z,99480.81
2023-12-09T13:10:51.861Z,99474.81
2023-12-09T13:13:20.361Z,99456.06
2023-12-09T13:15:48.848Z,99457.81
2023-12-09T13:18:20.402Z,99457.13
2023-12-09T13:20:51.622Z,99452.22
2023-12-09T13:23:20.253Z,99453.31
2023-12-09T13:25:48.918Z,99461.38
2023-12-09T13:28:17.423Z,99435.06
2023-12-09T13:30:46.019Z,99417.50
2023-12-09T13:33:14.708Z,99422.44
2023-12-09T13:35:44.344Z,99396.09
2023-12-09T13:38:12.876Z,99395.81
2023-12-09T13:40:46.087Z,99392.34
2023-12-09T13:43:14.950Z,99380.22
2023-12-09T13:45:43.417Z,99368.91
2023-12-09T13:48:12.681Z,99378.03
2023-12-09T13:50:41.245Z,99363.84
2023-12-09T13:53:10.896Z,99349.25
2023-12-09T13:55:39.589Z,99333.66
2023-12-09T13:58:08.083Z,99323.66
2023-12-09T14:00:36.619Z,99305.00
2023-12-09T14:03:05.434Z,99299.25
2023-12-09T14:05:34.690Z,99293.22
2023-12-09T14:08:03.274Z,99246.41
2023-12-09T14:10:31.747Z,99242.25
2023-12-09T14:13:00.280Z,99247.72
2023-12-09T14:15:28.869Z,99235.84
2023-12-09T14:17:57.486Z,99234.41
2023-12-09T14:22:54.584Z,99236.38
2023-12-09T14:25:23.289Z,99225.41
2023-12-09T14:27:52.009Z,99227.72
2023-12-09T14:30:21.895Z,99207.38
2023-12-09T14:32:50.595Z,99176.47
2023-12-09T14:35:19.672Z,99175.66
2023-12-09T14:37:49.701Z,99152.59
2023-12-09T14:40:18.424Z,99153.75
2023-12-09T14:42:47.086Z,99162.53
2023-12-09T14:45:16.003Z,99166.31
2023-12-09T14:47:53.867Z,99156.84
2023-12-09T14:50:28.103Z,99147.97
2023-12-09T14:52:56.701Z,99134.41
2023-12-09T14:55:25.457Z,99099.91
2023-12-09T14:57:54.111Z,99099.16
2023-12-09T15:00:23.349Z,99101.31
2023-12-09T15:02:52.030Z,99098.72
2023-12-09T15:05:20.585Z,99094.84
2023-12-09T15:07:49.145Z,99076.59
2023-12-09T15:10:17.725Z,99074.53
2023-12-09T15:12:48.800Z,99072.81
2023-12-09T15:17:46.278Z,99070.09
2023-12-09T15:20:14.968Z,99066.72
2023-12-09T15:22:43.965Z,99069.03
2023-12-09T15:25:13.324Z,99069.34
2023-12-09T15:27:41.828Z,99069.22
2023-12-09T15:30:11.923Z,99059.00
2023-12-09T15:32:42.394Z,99057.50
2023-12-09T15:35:11.473Z,99048.22
2023-12-09T15:37:40.922Z,99056.59
2023-12-09T15:40:10.494Z,99056.03
2023-12-09T15:42:39.360Z,99035.19
2023-12-09T15:45:08.713Z,99037.94
2023-12-09T15:47:37.694Z,99023.13
2023-12-09T15:50:07.331Z,99027.53
2023-12-09T15:52:35.942Z,99020.06
2023-12-09T15:55:05.681Z,99026.72
2023-12-09T15:57:34.709Z,99016.38
2023-12-09T16:00:03.867Z,99020.84
2023-12-09T16:02:33.678Z,99025.16
2023-12-09T16:05:02.324Z,99025.59
2023-12-09T16:07:30.984Z,99015.31
2023-12-09T16:09:59.539Z,99015.03
2023-12-09T16:12:28.444Z,99015.41
2023-12-09T16:14:57.076Z,99019.03
2023-12-09T16:17:26.042Z,99019.34
2023-12-09T16:19:54.562Z,99017.03
2023-12-09T16:22:23.106Z,99005.75
2023-12-09T16:24:51.861Z,99023.59
2023-12-09T16:27:20.551Z,99016.59
2023-12-09T16:29:49.146Z,99014.94
2023-12-09T16:32:17.657Z,99008.28
2023-12-09T16:34:46.275Z,98995.19
2023-12-09T16:37:15.373Z,98996.69
2023-12-09T16:39:43.944Z,98991.34
2023-12-09T16:42:12.530Z,99002.41
2023-12-09T16:44:40.924Z,98990.69
2023-12-09T16:47:09.526Z,98989.41
2023-12-09T16:49:38.527Z,98990.84
2023-12-09T16:52:07.197Z,98987.69
2023-12-09T16:54:36.002Z,98998.25
2023-12-09T16:57:04.584Z,98998.13
2023-12-09T16:59:33.064Z,99004.81
2023-12-09T17:02:01.564Z,98994.69
2023-12-09T17:04:30.168Z,98995.28
2023-12-09T17:06:58.841Z,98989.78
2023-12-09T17:09:27.319Z,98981.31
2023-12-09T17:11:56.590Z,98980.03
2023-12-09T17:14:25.114Z,98984.00
2023-12-09T17:16:55.170Z,98975.81
2023-12-09T17:19:23.896Z,98988.59
2023-12-09T17:21:52.395Z,98982.34
2023-12-09T17:24:21.013Z,98988.66
2023-12-09T17:26:49.528Z,98992.09
2023-12-09T17:29:18.083Z,99002.84
2023-12-09T17:31:48.347Z,98985.66
2023-12-09T17:34:17.352Z,98987.47
2023-12-09T17:36:45.981Z,98997.63
2023-12-09T17:39:15.598Z,99001.00
2023-12-09T17:41:44.098Z,98986.47
2023-12-09T17:44:12.601Z,98984.19
2023-12-09T17:46:41.070Z,98978.66
2023-12-09T17:49:09.722Z,98976.00
2023-12-09T17:51:38.315Z,98980.72
2023-12-09T17:54:07.432Z,98974.56
2023-12-09T17:56:36.072Z,98997.47
2023-12-09T17:59:04.472Z,98998.53
2023-12-09T18:01:33.237Z,98983.97
2023-12-09T18:04:01.908Z,98999.34
2023-12-09T18:06:30.749Z,99004.44
2023-12-09T18:08:59.379Z,99004.78
2023-12-09T18:11:27.868Z,98999.34
2023-12-09T18:13:57.676Z,99013.41
2023-12-09T18:16:26.321Z,99012.41
2023-12-09T18:18:56.180Z,99008.31
2023-12-09T18:21:24.971Z,99020.84
2023-12-09T18:23:54.372Z,99020.59
2023-12-09T18:26:23.228Z,99021.13
2023-12-09T18:28:51.847Z,99019.88
2023-12-09T18:31:22.367Z,99017.22
2023-12-09T18:33:51.046Z,99006.84
2023-12-09T18:36:19.747Z,99021.13
2023-12-09T18:38:49.056Z,99024.38
2023-12-09T18:41:17.576Z,99025.50
2023-12-09T18:43:46.218Z,99014.50
2023-12-09T18:46:14.755Z,99053.78
2023-12-09T18:48:43.495Z,99053.84
2023-12-09T18:51:12.141Z,99063.69
2023-12-09T18:53:40.627Z,99077.47
2023-12-09T18:56:09.988Z,99086.72
2023-12-09T18:58:38.834Z,99099.16
2023-12-09T19:01:10.986Z,99097.84
2023-12-09T19:03:40.684Z,99095.84
2023-12-09T19:06:10.330Z,99097.28
2023-12-09T19:08:39.312Z,99115.72
2023-12-09T19:11:07.795Z,99103.25
2023-12-09T19:13:36.361Z,99129.34
2023-12-09T19:16:05.265Z,99133.16
2023-12-09T19:18:34.422Z,99151.69
2023-12-09T19:21:04.651Z,99150.16
2023-12-09T19:23:33.400Z,99159.34
2023-12-09T19:26:03.538Z,99159.19
2023-12-09T19:28:32.374Z,99171.63
2023-12-09T19:31:00.891Z,99183.75
2023-12-09T19:33:29.957Z,99185.34
2023-12-09T19:35:59.589Z,99201.09
2023-12-09T19:38:28.114Z,99194.81
2023-12-09T19:40:56.695Z,99195.38
2023-12-09T19:43:25.087Z,99210.28
2023-12-09T19:45:53.733Z,99223.03
2023-12-09T19:48:22.480Z,99229.25
2023-12-09T19:50:51.073Z,99250.19
2023-12-09T19:53:19.558Z,99262.25
2023-12-09T19:55:48.023Z,99258.94
2023-12-09T19:58:17.071Z,99267.53
2023-12-09T20:00:45.909Z,99280.19
2023-12-09T20:03:15.160Z,99282.09
2023-12-09T20:05:43.755Z,99274.44
2023-12-09T20:08:12.696Z,99296.09
2023-12-09T20:10:42.433Z,99302.13
2023-12-09T20:13:10.911Z,99305.41
2023-12-09T20:15:39.466Z,99312.47
2023-12-09T20:18:08.698Z,99334.00
2023-12-09T20:20:37.323Z,99328.16
2023-12-09T20:23:06.306Z,99341.03
2023-12-09T20:25:35.457Z,99344.47
2023-12-09T20:28:05.745Z,99338.25
2023-12-09T20:30:35.715Z,99350.97
2023-12-09T20:33:04.459Z,99350.78
2023-12-09T20:35:33.805Z,99365.56
2023-12-09T20:38:02.982Z,99374.88
2023-12-09T20:40:31.534Z,99375.63
2023-12-09T20:43:00.069Z,99379.75
2023-12-09T20:45:28.586Z,99389.47
2023-12-09T20:47:57.493Z,99388.16
2023-12-09T20:50:26.068Z,99391.53
2023-12-09T20:52:54.485Z,99394.34
2023-12-09T20:55:22.921Z,99411.06
2023-12-09T20:57:51.563Z,99423.41
2023-12-09T21:00:21.216Z,99430.59
2023-12-09T21:02:49.758Z,99423.03
2023-12-09T21:05:19.460Z,99436.53
2023-12-09T21:07:48.449Z,99434.44
2023-12-09T21:10:17.135Z,99440.47
2023-12-09T21:12:45.629Z,99443.69
2023-12-09T21:15:14.487Z,99458.31
2023-12-09T21:17:43.437Z,99466.75
2023-12-09T21:20:12.892Z,99471.72
2023-12-09T21:22:41.379Z,99494.94
2023-12-09T21:25:11.132Z,99484.56
2023-12-09T21:27:39.851Z,99489.09
2023-12-09T21:30:08.942Z,99492.38
2023-12-09T21:32:37.466Z,99503.88
2023-12-09T21:35:06.617Z,99524.84
2023-12-09T21:37:35.819Z,99528.72
2023-12-09T21:40:06.597Z,99542.44
2023-12-09T21:42:35.043Z,99546.28
2023-12-09T21:45:03.962Z,99557.47
2023-12-09T21:47:32.613Z,99564.00
2023-12-09T21:50:02.174Z,99570.16
2023-12-09T21:52:30.866Z,99572.06
2023-12-09T21:54:59.694Z,99574.16
2023-12-09T21:57:29.300Z,99567.13
2023-12-09T21:59:58.917Z,99578.16
2023-12-09T22:02:27.564Z,99587.75
2023-12-09T22:04:56.472Z,99592.44
2023-12-09T22:07:25.271Z,99589.41
2023-12-09T22:09:53.971Z,99593.06
2023-12-09T22:12:22.565Z,99603.31
2023-12-09T22:14:51.128Z,99608.75
2023-12-09T22:17:19.578Z,99610.38
2023-12-09T22:19:47.980Z,99614.56
2023-12-09T22:22:16.464Z,99614.44
2023-12-09T22:24:44.962Z,99631.63
2023-12-09T22:27:16.000Z,99624.59
2023-12-09T22:29:44.436Z,99630.25
2023-12-09T22:32:13.158Z,99625.47
2023-12-09T22:34:41.761Z,99625.81
2023-12-09T22:37:10.390Z,99635.38
2023-12-09T22:39:39.753Z,99645.44
2023-12-09T22:42:08.422Z,99660.53
2023-12-09T22:44:36.956Z,99648.09
2023-12-09T22:47:05.906Z,99664.13
2023-12-09T22:49:34.548Z,99672.34
2023-12-09T22:52:03.974Z,99676.59
2023-12-09T22:54:32.652Z,99684.75
2023-12-09T22:59:29.644Z,99686.81
2023-12-09T23:01:59.726Z,99700.66
2023-12-09T23:04:28.240Z,99695.25
2023-12-09T23:06:56.678Z,99695.19
2023-12-09T23:09:25.313Z,99695.84
2023-12-09T23:11:53.876Z,99704.06
2023-12-09T23:14:22.717Z,99700.41
2023-12-09T23:16:51.229Z,99703.09
2023-12-09T23:19:19.910Z,99709.63
2023-12-09T23:21:48.507Z,99717.25
2023-12-09T23:24:16.983Z,99718.81
2023-12-09T23:26:45.531Z,99735.50
2023-12-09T23:29:14.217Z,99738.09
2023-12-09T23:31:43.106Z,99737.34
2023-12-09T23:34:11.749Z,99737.84
2023-12-09T23:36:40.303Z,99719.56
2023-12-09T23:39:08.803Z,99725.63
2023-12-09T23:41:37.304Z,99733.25
2023-12-09T23:44:05.745Z,99737.22
2023-12-09T23:46:34.226Z,99738.44
2023-12-09T23:49:02.854Z,99733.03
2023-12-09T23:51:31.635Z,99742.22
2023-12-09T23:54:00.193Z,99735.53
2023-12-09T23:56:28.637Z,99753.72
2023-12-09T23:58:57.211Z,99748.06
